UAL314 KDCA-KRIC
Flight info
| Callsign | UAL314 |
|---|---|
| Flight time | 0h 23m |
| Altitude | 16000 |
| Route | AMEEE1 COLIN |
| Aircraft | A320/M-SDE3FGHIRWY/LB1 |
Departure
| Time | 2026-05-06 21:41 |
|---|---|
| Airport | Ronald Reagan Washington National Airport (KDCA) |
Arrival
| Time | 2026-05-06 22:05 |
|---|---|
| Airport | Richmond International Airport (KRIC) |
| Time | Latitude | Longitude | Altitude | Speed | Heading |
|---|---|---|---|---|---|
| 2026-05-06 21:15 | 38.85253 | -77.04160 | 23 ft | 0 kts | 171° |
| 2026-05-06 21:31 | 38.85264 | -77.04162 | 24 ft | 2 kts | 177° |
| 2026-05-06 21:31 | 38.85280 | -77.04162 | 25 ft | 2 kts | 187° |
| 2026-05-06 21:31 | 38.85296 | -77.04157 | 26 ft | 2 kts | 215° |
| 2026-05-06 21:31 | 38.85307 | -77.04142 | 27 ft | 2 kts | 248° |
| 2026-05-06 21:32 | 38.85311 | -77.04129 | 24 ft | 1 kts | 253° |
| 2026-05-06 21:32 | 38.85312 | -77.04127 | 24 ft | 0 kts | 253° |
| 2026-05-06 21:35 | 38.85311 | -77.04128 | 24 ft | 1 kts | 253° |
| 2026-05-06 21:35 | 38.85313 | -77.04153 | 26 ft | 6 kts | 287° |
| 2026-05-06 21:35 | 38.85303 | -77.04187 | 25 ft | 3 kts | 149° |
| 2026-05-06 21:36 | 38.85305 | -77.04157 | 23 ft | 0 kts | 75° |
| 2026-05-06 21:36 | 38.85310 | -77.04134 | 24 ft | 5 kts | 75° |
| 2026-05-06 21:36 | 38.85322 | -77.04078 | 23 ft | 8 kts | 73° |
| 2026-05-06 21:36 | 38.85324 | -77.04069 | 23 ft | 0 kts | 73° |
| 2026-05-06 21:37 | 38.85327 | -77.04058 | 22 ft | 4 kts | 73° |
| 2026-05-06 21:37 | 38.85348 | -77.04005 | 23 ft | 10 kts | 53° |
| 2026-05-06 21:37 | 38.85415 | -77.03959 | 22 ft | 12 kts | 27° |
| 2026-05-06 21:37 | 38.85501 | -77.03952 | 23 ft | 13 kts | 356° |
| 2026-05-06 21:38 | 38.85601 | -77.03962 | 24 ft | 15 kts | 355° |
| 2026-05-06 21:38 | 38.85715 | -77.03976 | 25 ft | 17 kts | 352° |
| 2026-05-06 21:38 | 38.85839 | -77.03986 | 26 ft | 16 kts | 357° |
| 2026-05-06 21:38 | 38.85960 | -77.03971 | 24 ft | 19 kts | 14° |
| 2026-05-06 21:39 | 38.86005 | -77.03956 | 23 ft | 0 kts | 16° |
| 2026-05-06 21:39 | 38.86024 | -77.03949 | 22 ft | 6 kts | 15° |
| 2026-05-06 21:39 | 38.86084 | -77.03916 | 22 ft | 12 kts | 33° |
| 2026-05-06 21:40 | 38.86068 | -77.03869 | 20 ft | 7 kts | 171° |
| 2026-05-06 21:40 | 38.86013 | -77.03861 | 21 ft | 9 kts | 174° |
| 2026-05-06 21:40 | 38.85964 | -77.03856 | 23 ft | 0 kts | 176° |
| 2026-05-06 21:40 | 38.85942 | -77.03854 | 23 ft | 19 kts | 176° |
| 2026-05-06 21:41 | 38.85537 | -77.03814 | 23 ft | 94 kts | 176° |
| 2026-05-06 21:41 | 38.84689 | -77.03729 | 50 ft | 145 kts | 176° |
| 2026-05-06 21:41 | 38.83603 | -77.03603 | 385 ft | 169 kts | 175° |
| 2026-05-06 21:41 | 38.82339 | -77.03435 | 901 ft | 194 kts | 177° |
| 2026-05-06 21:42 | 38.80910 | -77.03244 | 1380 ft | 221 kts | 176° |
| 2026-05-06 21:42 | 38.79290 | -77.03039 | 1907 ft | 243 kts | 179° |
| 2026-05-06 21:42 | 38.77579 | -77.02843 | 2844 ft | 252 kts | 179° |
| 2026-05-06 21:42 | 38.75821 | -77.02833 | 3808 ft | 254 kts | 194° |
| 2026-05-06 21:43 | 38.74082 | -77.03294 | 4798 ft | 258 kts | 197° |
| 2026-05-06 21:43 | 38.72301 | -77.03790 | 5765 ft | 265 kts | 198° |
| 2026-05-06 21:43 | 38.70492 | -77.04295 | 6827 ft | 267 kts | 198° |
| 2026-05-06 21:43 | 38.68667 | -77.04803 | 7805 ft | 269 kts | 198° |
| 2026-05-06 21:44 | 38.66825 | -77.05315 | 8795 ft | 272 kts | 198° |
| 2026-05-06 21:44 | 38.64972 | -77.05829 | 9755 ft | 274 kts | 199° |
| 2026-05-06 21:44 | 38.63074 | -77.06358 | 10365 ft | 289 kts | 199° |
| 2026-05-06 21:44 | 38.61034 | -77.06936 | 10673 ft | 311 kts | 199° |
| 2026-05-06 21:45 | 38.58879 | -77.07538 | 11263 ft | 322 kts | 198° |
| 2026-05-06 21:45 | 38.56665 | -77.08145 | 11804 ft | 328 kts | 198° |
| 2026-05-06 21:45 | 38.54427 | -77.08754 | 11993 ft | 330 kts | 198° |
| 2026-05-06 21:45 | 38.52182 | -77.09362 | 12024 ft | 329 kts | 198° |
| 2026-05-06 21:46 | 38.49940 | -77.09969 | 12029 ft | 330 kts | 198° |
| 2026-05-06 21:46 | 38.47672 | -77.10587 | 12691 ft | 334 kts | 199° |
| 2026-05-06 21:46 | 38.45386 | -77.11215 | 13508 ft | 338 kts | 199° |
| 2026-05-06 21:46 | 38.43106 | -77.11845 | 14175 ft | 342 kts | 199° |
| 2026-05-06 21:47 | 38.40762 | -77.12490 | 14852 ft | 346 kts | 200° |
| 2026-05-06 21:47 | 38.38393 | -77.13139 | 15518 ft | 350 kts | 200° |
| 2026-05-06 21:47 | 38.35987 | -77.13748 | 15895 ft | 358 kts | 195° |
| 2026-05-06 21:47 | 38.33443 | -77.13592 | 16013 ft | 381 kts | 174° |
| 2026-05-06 21:48 | 38.30871 | -77.12437 | 16031 ft | 398 kts | 165° |
| 2026-05-06 21:48 | 38.28292 | -77.11098 | 16031 ft | 401 kts | 165° |
| 2026-05-06 21:48 | 38.25717 | -77.09729 | 16029 ft | 402 kts | 164° |
| 2026-05-06 21:48 | 38.23142 | -77.08349 | 16029 ft | 402 kts | 164° |
| 2026-05-06 21:49 | 38.20561 | -77.06973 | 16030 ft | 402 kts | 165° |
| 2026-05-06 21:49 | 38.17980 | -77.05608 | 16036 ft | 402 kts | 165° |
| 2026-05-06 21:49 | 38.15397 | -77.04254 | 16040 ft | 402 kts | 165° |
| 2026-05-06 21:49 | 38.12808 | -77.02902 | 16041 ft | 402 kts | 165° |
| 2026-05-06 21:50 | 38.10221 | -77.01553 | 16043 ft | 402 kts | 165° |
| 2026-05-06 21:50 | 38.07643 | -77.00184 | 16047 ft | 404 kts | 161° |
| 2026-05-06 21:50 | 38.05268 | -76.98202 | 16051 ft | 417 kts | 143° |
| 2026-05-06 21:50 | 38.03420 | -76.95328 | 16054 ft | 427 kts | 123° |
| 2026-05-06 21:51 | 38.02350 | -76.91803 | 16054 ft | 426 kts | 106° |
| 2026-05-06 21:51 | 38.01489 | -76.88271 | 15936 ft | 412 kts | 119° |
| 2026-05-06 21:51 | 37.99840 | -76.85471 | 15754 ft | 386 kts | 145° |
| 2026-05-06 21:51 | 37.97613 | -76.83826 | 15397 ft | 362 kts | 167° |
| 2026-05-06 21:52 | 37.95220 | -76.83021 | 14950 ft | 352 kts | 177° |
| 2026-05-06 21:52 | 37.92819 | -76.82646 | 14512 ft | 343 kts | 184° |
| 2026-05-06 21:52 | 37.90471 | -76.82740 | 14152 ft | 330 kts | 195° |
| 2026-05-06 21:52 | 37.88311 | -76.83400 | 14032 ft | 310 kts | 207° |
| 2026-05-06 21:53 | 37.86423 | -76.84551 | 13682 ft | 299 kts | 218° |
| 2026-05-06 21:53 | 37.84800 | -76.86165 | 12863 ft | 304 kts | 229° |
| 2026-05-06 21:53 | 37.83454 | -76.88202 | 12046 ft | 299 kts | 239° |
| 2026-05-06 21:53 | 37.82454 | -76.90512 | 11261 ft | 293 kts | 249° |
| 2026-05-06 21:54 | 37.81662 | -76.92874 | 10508 ft | 290 kts | 248° |
| 2026-05-06 21:54 | 37.80884 | -76.95161 | 9935 ft | 283 kts | 248° |
| 2026-05-06 21:54 | 37.80110 | -76.97424 | 9309 ft | 277 kts | 248° |
| 2026-05-06 21:54 | 37.79354 | -76.99622 | 8827 ft | 267 kts | 248° |
| 2026-05-06 21:55 | 37.78628 | -77.01735 | 8383 ft | 258 kts | 248° |
| 2026-05-06 21:55 | 37.77922 | -77.03797 | 7953 ft | 254 kts | 248° |
| 2026-05-06 21:55 | 37.77224 | -77.05840 | 7529 ft | 252 kts | 248° |
| 2026-05-06 21:55 | 37.76531 | -77.07868 | 7111 ft | 251 kts | 249° |
| 2026-05-06 21:56 | 37.75833 | -77.09913 | 6681 ft | 254 kts | 249° |
| 2026-05-06 21:56 | 37.75127 | -77.11975 | 6247 ft | 257 kts | 248° |
| 2026-05-06 21:56 | 37.74415 | -77.14057 | 5795 ft | 261 kts | 248° |
| 2026-05-06 21:56 | 37.73689 | -77.16183 | 5349 ft | 265 kts | 248° |
| 2026-05-06 21:57 | 37.72957 | -77.18322 | 4901 ft | 266 kts | 247° |
| 2026-05-06 21:57 | 37.72218 | -77.20473 | 4445 ft | 267 kts | 246° |
| 2026-05-06 21:57 | 37.71477 | -77.22629 | 3993 ft | 268 kts | 246° |
| 2026-05-06 21:57 | 37.70750 | -77.24744 | 3868 ft | 255 kts | 246° |
| 2026-05-06 21:58 | 37.70062 | -77.26737 | 3815 ft | 241 kts | 246° |
| 2026-05-06 21:58 | 37.69405 | -77.28640 | 3713 ft | 231 kts | 245° |
| 2026-05-06 21:58 | 37.68778 | -77.30453 | 3575 ft | 217 kts | 245° |
| 2026-05-06 21:58 | 37.68201 | -77.32119 | 3460 ft | 199 kts | 245° |
| 2026-05-06 21:59 | 37.67661 | -77.33681 | 3340 ft | 189 kts | 245° |
| 2026-05-06 21:59 | 37.67144 | -77.35176 | 3199 ft | 182 kts | 245° |
| 2026-05-06 21:59 | 37.66648 | -77.36611 | 3074 ft | 174 kts | 245° |
| 2026-05-06 21:59 | 37.66173 | -77.37988 | 2895 ft | 169 kts | 244° |
| 2026-05-06 22:00 | 37.65642 | -77.39293 | 2768 ft | 167 kts | 233° |
| 2026-05-06 22:00 | 37.64795 | -77.40298 | 2649 ft | 169 kts | 214° |
| 2026-05-06 22:00 | 37.63694 | -77.40838 | 2542 ft | 173 kts | 193° |
| 2026-05-06 22:00 | 37.62501 | -77.40801 | 2484 ft | 170 kts | 172° |
| 2026-05-06 22:01 | 37.61438 | -77.40207 | 2383 ft | 165 kts | 154° |
| 2026-05-06 22:01 | 37.60513 | -77.39458 | 2257 ft | 151 kts | 156° |
| 2026-05-06 22:01 | 37.59656 | -77.38769 | 2128 ft | 143 kts | 157° |
| 2026-05-06 22:01 | 37.58822 | -77.38101 | 2020 ft | 140 kts | 158° |
| 2026-05-06 22:02 | 37.58003 | -77.37443 | 1887 ft | 139 kts | 158° |
| 2026-05-06 22:02 | 37.57183 | -77.36788 | 1612 ft | 140 kts | 157° |
| 2026-05-06 22:02 | 37.56387 | -77.36150 | 1391 ft | 135 kts | 157° |
| 2026-05-06 22:02 | 37.55593 | -77.35514 | 1115 ft | 135 kts | 156° |
| 2026-05-06 22:03 | 37.54806 | -77.34875 | 893 ft | 136 kts | 155° |
| 2026-05-06 22:03 | 37.53998 | -77.34228 | 820 ft | 137 kts | 154° |
| 2026-05-06 22:03 | 37.53187 | -77.33578 | 594 ft | 137 kts | 155° |
| 2026-05-06 22:03 | 37.52395 | -77.32935 | 372 ft | 136 kts | 155° |
| 2026-05-06 22:04 | 37.51583 | -77.32282 | 258 ft | 141 kts | 154° |
| 2026-05-06 22:04 | 37.50783 | -77.31656 | 177 ft | 121 kts | 155° |
| 2026-05-06 22:04 | 37.50137 | -77.31143 | 170 ft | 97 kts | 145° |
| 2026-05-06 22:04 | 37.49665 | -77.30762 | 171 ft | 52 kts | 147° |
| 2026-05-06 22:05 | 37.49601 | -77.30726 | 170 ft | 4 kts | 179° |
| 2026-05-06 22:05 | 37.49558 | -77.30764 | 170 ft | 10 kts | 234° |
| 2026-05-06 22:05 | 37.49513 | -77.30848 | 170 ft | 13 kts | 237° |
| 2026-05-06 22:05 | 37.49514 | -77.30934 | 171 ft | 10 kts | 324° |
| 2026-05-06 22:06 | 37.49577 | -77.30990 | 171 ft | 13 kts | 324° |
| 2026-05-06 22:06 | 37.49665 | -77.31066 | 169 ft | 18 kts | 326° |
| 2026-05-06 22:06 | 37.49779 | -77.31157 | 169 ft | 21 kts | 328° |
| 2026-05-06 22:06 | 37.49916 | -77.31265 | 167 ft | 25 kts | 327° |
| 2026-05-06 22:07 | 37.50057 | -77.31378 | 169 ft | 24 kts | 327° |
| 2026-05-06 22:07 | 37.50206 | -77.31497 | 170 ft | 26 kts | 328° |
| 2026-05-06 22:07 | 37.50366 | -77.31626 | 172 ft | 29 kts | 329° |
| 2026-05-06 22:07 | 37.50513 | -77.31742 | 173 ft | 15 kts | 327° |
| 2026-05-06 22:08 | 37.50619 | -77.31825 | 171 ft | 20 kts | 328° |
| 2026-05-06 22:08 | 37.50748 | -77.31930 | 172 ft | 23 kts | 328° |